Terminal Aerodrome Forecast
Issued by NWS Wilmington, NC

Home | Current Version | Previous Version | Text Only | Print | Product List | Glossary On
Versions: 1 2 3 4 5 6 7 8 9 10 11 12 13 14 15 16 17 18 19 20 21
000
FTUS42 KILM 270523
TAFLBT
TAF
KLBT 270523Z 2706/2806 22006KT P6SM SCT030 OVC100
     FM270900 23006KT P6SM VCSH BKN040 OVC100
      TEMPO 2709/2713 -SHRA SCT006 BKN015
     FM271300 23006KT 4SM -RA BR BKN006 OVC015
     FM271400 32013G17KT 2SM -RA BR OVC004
     FM271700 36010KT 6SM -RA BKN010 OVC030=

USA.gov is the U.S. government's official web portal to all federal, state and local government web resources and services.